sensor_id;sensor_type;location;lat;lon;timestamp;temperature;humidity
16491;DHT22;8356;51.214;3.270;2023-03-23T00:01:28;359.00;2329.60
16491;DHT22;8356;51.214;3.270;2023-03-23T00:03:57;359.10;2329.60
16491;DHT22;8356;51.214;3.270;2023-03-23T00:06:27;359.10;2329.60
16491;DHT22;8356;51.214;3.270;2023-03-23T00:08:54;359.10;2329.60
16491;DHT22;8356;51.214;3.270;2023-03-23T00:11:27;359.10;2329.60
16491;DHT22;8356;51.214;3.270;2023-03-23T00:13:55;359.10;2329.60
16491;DHT22;8356;51.214;3.270;2023-03-23T00:16:24;359.10;2329.60
16491;DHT22;8356;51.214;3.270;2023-03-23T00:19:15;359.10;2329.60
16491;DHT22;8356;51.214;3.270;2023-03-23T00:21:42;359.10;2329.60
16491;DHT22;8356;51.214;3.270;2023-03-23T00:24:12;359.10;2329.60
16491;DHT22;8356;51.214;3.270;2023-03-23T00:26:39;359.20;2329.60
16491;DHT22;8356;51.214;3.270;2023-03-23T00:29:11;359.20;2329.60
16491;DHT22;8356;51.214;3.270;2023-03-23T00:31:39;359.20;2329.60
16491;DHT22;8356;51.214;3.270;2023-03-23T00:34:05;358.90;2329.60
16491;DHT22;8356;51.214;3.270;2023-03-23T00:36:32;384.20;2329.60
16491;DHT22;8356;51.214;3.270;2023-03-23T00:39:03;359.20;2329.60
16491;DHT22;8356;51.214;3.270;2023-03-23T00:41:29;359.20;2329.60
16491;DHT22;8356;51.214;3.270;2023-03-23T00:43:57;359.20;2329.60
16491;DHT22;8356;51.214;3.270;2023-03-23T00:46:24;359.20;2329.60
16491;DHT22;8356;51.214;3.270;2023-03-23T00:48:50;359.20;2329.60
16491;DHT22;8356;51.214;3.270;2023-03-23T00:51:18;359.20;2329.60
16491;DHT22;8356;51.214;3.270;2023-03-23T00:53:44;359.20;2329.60
16491;DHT22;8356;51.214;3.270;2023-03-23T00:56:10;359.10;2329.60
16491;DHT22;8356;51.214;3.270;2023-03-23T00:58:37;359.10;2329.60
16491;DHT22;8356;51.214;3.270;2023-03-23T01:01:04;359.10;2329.60
16491;DHT22;8356;51.214;3.270;2023-03-23T01:03:30;359.10;2329.60
16491;DHT22;8356;51.214;3.270;2023-03-23T01:05:56;359.10;2329.60
16491;DHT22;8356;51.214;3.270;2023-03-23T01:08:22;359.10;2329.60
16491;DHT22;8356;51.214;3.270;2023-03-23T01:10:49;359.10;2329.60
16491;DHT22;8356;51.214;3.270;2023-03-23T01:13:15;384.00;2329.60
16491;DHT22;8356;51.214;3.270;2023-03-23T01:15:41;359.10;2329.60
16491;DHT22;8356;51.214;3.270;2023-03-23T01:18:08;384.00;2329.60
16491;DHT22;8356;51.214;3.270;2023-03-23T01:20:35;359.10;2329.60
16491;DHT22;8356;51.214;3.270;2023-03-23T01:23:02;359.10;2329.60
16491;DHT22;8356;51.214;3.270;2023-03-23T01:25:34;359.10;2329.60
16491;DHT22;8356;51.214;3.270;2023-03-23T01:28:00;359.10;2329.60
16491;DHT22;8356;51.214;3.270;2023-03-23T01:30:26;359.10;2329.60
16491;DHT22;8356;51.214;3.270;2023-03-23T01:32:52;359.10;2329.60
16491;DHT22;8356;51.214;3.270;2023-03-23T01:35:19;359.00;2329.60
16491;DHT22;8356;51.214;3.270;2023-03-23T01:37:44;359.00;2329.60
16491;DHT22;8356;51.214;3.270;2023-03-23T01:40:10;359.10;2329.60
16491;DHT22;8356;51.214;3.270;2023-03-23T01:42:38;384.40;2329.60
16491;DHT22;8356;51.214;3.270;2023-03-23T01:50:34;359.10;2329.60
16491;DHT22;8356;51.214;3.270;2023-03-23T01:53:02;359.10;2329.60
16491;DHT22;8356;51.214;3.270;2023-03-23T01:55:30;359.10;2329.60
16491;DHT22;8356;51.214;3.270;2023-03-23T01:57:57;359.10;2329.60
16491;DHT22;8356;51.214;3.270;2023-03-23T02:00:24;359.10;2329.60
16491;DHT22;8356;51.214;3.270;2023-03-23T02:02:50;358.80;2329.60
16491;DHT22;8356;51.214;3.270;2023-03-23T02:05:30;358.70;2329.60
16491;DHT22;8356;51.214;3.270;2023-03-23T02:07:59;359.10;2329.60
16491;DHT22;8356;51.214;3.270;2023-03-23T02:10:29;359.10;2329.60
16491;DHT22;8356;51.214;3.270;2023-03-23T02:12:55;359.20;2329.60
16491;DHT22;8356;51.214;3.270;2023-03-23T02:15:21;359.20;2329.60
16491;DHT22;8356;51.214;3.270;2023-03-23T02:26:09;359.10;2329.60
16491;DHT22;8356;51.214;3.270;2023-03-23T02:34:38;359.10;2329.60
16491;DHT22;8356;51.214;3.270;2023-03-23T02:37:13;359.10;2329.60
16491;DHT22;8356;51.214;3.270;2023-03-23T02:40:02;359.10;2329.60
16491;DHT22;8356;51.214;3.270;2023-03-23T02:42:39;359.10;2329.60
16491;DHT22;8356;51.214;3.270;2023-03-23T02:45:08;359.10;2329.60
16491;DHT22;8356;51.214;3.270;2023-03-23T02:47:37;359.10;2329.60
16491;DHT22;8356;51.214;3.270;2023-03-23T02:50:05;359.10;2329.60
16491;DHT22;8356;51.214;3.270;2023-03-23T02:52:33;359.10;2329.60
16491;DHT22;8356;51.214;3.270;2023-03-23T02:55:00;359.10;2329.60
16491;DHT22;8356;51.214;3.270;2023-03-23T02:57:27;359.10;2329.60
16491;DHT22;8356;51.214;3.270;2023-03-23T02:59:54;359.10;2329.60
16491;DHT22;8356;51.214;3.270;2023-03-23T03:02:26;384.00;2329.60
16491;DHT22;8356;51.214;3.270;2023-03-23T03:05:02;359.10;2329.60
16491;DHT22;8356;51.214;3.270;2023-03-23T03:10:28;359.00;2329.60
16491;DHT22;8356;51.214;3.270;2023-03-23T03:16:06;359.00;2329.60
16491;DHT22;8356;51.214;3.270;2023-03-23T03:21:06;359.00;2329.60
16491;DHT22;8356;51.214;3.270;2023-03-23T03:23:33;358.90;2329.60
16491;DHT22;8356;51.214;3.270;2023-03-23T03:26:02;358.90;2329.60
16491;DHT22;8356;51.214;3.270;2023-03-23T03:28:31;359.00;2329.60
16491;DHT22;8356;51.214;3.270;2023-03-23T03:31:00;359.00;2329.60
16491;DHT22;8356;51.214;3.270;2023-03-23T03:33:28;359.00;2329.60
16491;DHT22;8356;51.214;3.270;2023-03-23T03:35:57;359.00;2329.60
16491;DHT22;8356;51.214;3.270;2023-03-23T03:38:25;358.90;2329.60
16491;DHT22;8356;51.214;3.270;2023-03-23T03:40:51;358.80;2329.60
16491;DHT22;8356;51.214;3.270;2023-03-23T03:43:17;358.80;2329.60
16491;DHT22;8356;51.214;3.270;2023-03-23T03:45:43;358.80;2329.60
16491;DHT22;8356;51.214;3.270;2023-03-23T03:48:09;358.90;2329.60
16491;DHT22;8356;51.214;3.270;2023-03-23T03:50:35;359.10;2329.60
16491;DHT22;8356;51.214;3.270;2023-03-23T03:53:01;358.80;2329.60
16491;DHT22;8356;51.214;3.270;2023-03-23T03:55:27;358.80;2329.60
16491;DHT22;8356;51.214;3.270;2023-03-23T03:57:54;358.80;2329.60
16491;DHT22;8356;51.214;3.270;2023-03-23T04:00:20;358.70;2329.60
16491;DHT22;8356;51.214;3.270;2023-03-23T04:02:48;358.70;2329.60
16491;DHT22;8356;51.214;3.270;2023-03-23T04:05:21;358.40;2329.60
16491;DHT22;8356;51.214;3.270;2023-03-23T04:07:47;358.70;2329.60
16491;DHT22;8356;51.214;3.270;2023-03-23T04:10:18;358.70;2329.60
16491;DHT22;8356;51.214;3.270;2023-03-23T04:12:47;358.70;2329.60
16491;DHT22;8356;51.214;3.270;2023-03-23T04:15:13;358.60;2329.60
16491;DHT22;8356;51.214;3.270;2023-03-23T04:17:39;358.60;2329.60
16491;DHT22;8356;51.214;3.270;2023-03-23T04:20:06;358.60;2329.60
16491;DHT22;8356;51.214;3.270;2023-03-23T04:22:39;358.70;2329.60
16491;DHT22;8356;51.214;3.270;2023-03-23T04:25:10;358.60;2329.60
16491;DHT22;8356;51.214;3.270;2023-03-23T04:27:38;358.60;2329.60
16491;DHT22;8356;51.214;3.270;2023-03-23T04:30:04;358.60;2329.60
16491;DHT22;8356;51.214;3.270;2023-03-23T04:32:31;358.60;2329.60
16491;DHT22;8356;51.214;3.270;2023-03-23T04:34:58;358.50;2329.60
16491;DHT22;8356;51.214;3.270;2023-03-23T04:37:26;358.60;2329.60
16491;DHT22;8356;51.214;3.270;2023-03-23T04:39:55;358.60;2329.60
16491;DHT22;8356;51.214;3.270;2023-03-23T04:42:30;358.60;2329.60
16491;DHT22;8356;51.214;3.270;2023-03-23T04:44:59;358.60;2329.60
16491;DHT22;8356;51.214;3.270;2023-03-23T04:47:26;358.50;2329.60
16491;DHT22;8356;51.214;3.270;2023-03-23T04:49:58;358.50;2329.60
16491;DHT22;8356;51.214;3.270;2023-03-23T04:52:25;358.50;2329.60
16491;DHT22;8356;51.214;3.270;2023-03-23T04:54:51;358.50;2329.60
16491;DHT22;8356;51.214;3.270;2023-03-23T04:57:17;358.70;2329.60
16491;DHT22;8356;51.214;3.270;2023-03-23T04:59:43;358.50;2329.60
16491;DHT22;8356;51.214;3.270;2023-03-23T05:02:10;358.50;2329.60
16491;DHT22;8356;51.214;3.270;2023-03-23T05:04:36;358.40;2329.60
16491;DHT22;8356;51.214;3.270;2023-03-23T05:07:03;358.50;2329.60
16491;DHT22;8356;51.214;3.270;2023-03-23T05:09:29;358.40;2329.60
16491;DHT22;8356;51.214;3.270;2023-03-23T05:11:55;358.40;2329.60
16491;DHT22;8356;51.214;3.270;2023-03-23T05:14:21;358.40;2329.60
16491;DHT22;8356;51.214;3.270;2023-03-23T05:16:46;358.40;2329.60
16491;DHT22;8356;51.214;3.270;2023-03-23T05:19:14;358.40;2329.60
16491;DHT22;8356;51.214;3.270;2023-03-23T05:21:40;358.40;2329.60
16491;DHT22;8356;51.214;3.270;2023-03-23T05:24:06;358.40;2329.60
16491;DHT22;8356;51.214;3.270;2023-03-23T05:26:32;333.70;2329.60
16491;DHT22;8356;51.214;3.270;2023-03-23T05:28:58;358.40;2329.60
16491;DHT22;8356;51.214;3.270;2023-03-23T05:31:24;358.40;2329.60
16491;DHT22;8356;51.214;3.270;2023-03-23T05:33:50;333.70;2329.60
16491;DHT22;8356;51.214;3.270;2023-03-23T05:36:16;333.70;2329.60
16491;DHT22;8356;51.214;3.270;2023-03-23T05:38:42;333.70;2329.60
16491;DHT22;8356;51.214;3.270;2023-03-23T05:41:11;333.70;2329.60
16491;DHT22;8356;51.214;3.270;2023-03-23T05:43:37;333.70;2329.60
16491;DHT22;8356;51.214;3.270;2023-03-23T05:46:03;333.70;2329.60
16491;DHT22;8356;51.214;3.270;2023-03-23T05:48:29;333.70;2329.60
16491;DHT22;8356;51.214;3.270;2023-03-23T05:50:54;333.70;2329.60
16491;DHT22;8356;51.214;3.270;2023-03-23T05:53:20;333.70;2329.60
16491;DHT22;8356;51.214;3.270;2023-03-23T05:55:46;333.70;2329.60
16491;DHT22;8356;51.214;3.270;2023-03-23T05:58:12;333.70;2329.60
16491;DHT22;8356;51.214;3.270;2023-03-23T06:00:38;333.70;2329.60
16491;DHT22;8356;51.214;3.270;2023-03-23T06:03:04;333.70;2329.60
16491;DHT22;8356;51.214;3.270;2023-03-23T06:05:31;333.60;2329.60
16491;DHT22;8356;51.214;3.270;2023-03-23T06:07:58;333.70;2329.60
16491;DHT22;8356;51.214;3.270;2023-03-23T06:10:24;333.70;2329.60
16491;DHT22;8356;51.214;3.270;2023-03-23T06:12:50;333.60;2329.60
16491;DHT22;8356;51.214;3.270;2023-03-23T06:15:17;333.60;2329.60
16491;DHT22;8356;51.214;3.270;2023-03-23T06:17:42;333.50;2329.60
16491;DHT22;8356;51.214;3.270;2023-03-23T06:20:09;333.60;2329.60
16491;DHT22;8356;51.214;3.270;2023-03-23T06:22:38;333.50;2329.60
16491;DHT22;8356;51.214;3.270;2023-03-23T06:25:09;358.60;2329.60
16491;DHT22;8356;51.214;3.270;2023-03-23T06:27:36;333.50;2329.60
16491;DHT22;8356;51.214;3.270;2023-03-23T06:30:04;333.50;2329.60
16491;DHT22;8356;51.214;3.270;2023-03-23T06:32:31;333.50;2329.60
16491;DHT22;8356;51.214;3.270;2023-03-23T06:34:57;333.40;2329.60
16491;DHT22;8356;51.214;3.270;2023-03-23T06:37:23;333.40;2329.60
16491;DHT22;8356;51.214;3.270;2023-03-23T06:39:50;333.40;2329.60
16491;DHT22;8356;51.214;3.270;2023-03-23T06:42:17;333.40;2329.60
16491;DHT22;8356;51.214;3.270;2023-03-23T06:44:43;333.40;2329.60
16491;DHT22;8356;51.214;3.270;2023-03-23T06:47:09;333.40;2329.60
16491;DHT22;8356;51.214;3.270;2023-03-23T06:49:35;333.40;2329.60
16491;DHT22;8356;51.214;3.270;2023-03-23T06:52:01;333.40;2329.60
16491;DHT22;8356;51.214;3.270;2023-03-23T06:54:29;333.30;2329.60
16491;DHT22;8356;51.214;3.270;2023-03-23T06:56:55;333.40;2329.60
16491;DHT22;8356;51.214;3.270;2023-03-23T06:59:21;333.40;2329.60
16491;DHT22;8356;51.214;3.270;2023-03-23T07:01:46;333.30;2329.60
16491;DHT22;8356;51.214;3.270;2023-03-23T07:04:14;333.40;2329.60
16491;DHT22;8356;51.214;3.270;2023-03-23T07:06:40;333.50;2329.60
16491;DHT22;8356;51.214;3.270;2023-03-23T07:09:05;333.50;2329.60
16491;DHT22;8356;51.214;3.270;2023-03-23T07:11:32;333.50;2329.60
16491;DHT22;8356;51.214;3.270;2023-03-23T07:13:57;333.50;2329.60
16491;DHT22;8356;51.214;3.270;2023-03-23T07:16:23;333.50;2329.60
16491;DHT22;8356;51.214;3.270;2023-03-23T07:18:49;333.50;2329.60
16491;DHT22;8356;51.214;3.270;2023-03-23T07:21:15;333.40;2329.60
16491;DHT22;8356;51.214;3.270;2023-03-23T07:23:41;333.40;2329.60
16491;DHT22;8356;51.214;3.270;2023-03-23T07:26:07;333.50;2329.60
16491;DHT22;8356;51.214;3.270;2023-03-23T07:28:33;333.50;2329.60
16491;DHT22;8356;51.214;3.270;2023-03-23T07:30:58;358.40;2329.60
16491;DHT22;8356;51.214;3.270;2023-03-23T07:33:25;358.50;2329.60
16491;DHT22;8356;51.214;3.270;2023-03-23T07:35:52;358.60;2329.60
16491;DHT22;8356;51.214;3.270;2023-03-23T07:38:17;358.80;2329.60
16491;DHT22;8356;51.214;3.270;2023-03-23T07:40:43;358.80;2329.60
16491;DHT22;8356;51.214;3.270;2023-03-23T07:43:10;359.00;2329.60
16491;DHT22;8356;51.214;3.270;2023-03-23T07:45:36;359.10;2329.60
16491;DHT22;8356;51.214;3.270;2023-03-23T07:48:02;359.10;2329.60
16491;DHT22;8356;51.214;3.270;2023-03-23T07:50:28;359.30;2329.60
16491;DHT22;8356;51.214;3.270;2023-03-23T07:52:55;359.30;2329.60
16491;DHT22;8356;51.214;3.270;2023-03-23T07:55:21;384.00;2329.60
16491;DHT22;8356;51.214;3.270;2023-03-23T07:57:48;384.20;2329.60
16491;DHT22;8356;51.214;3.270;2023-03-23T08:00:17;384.20;2329.60
16491;DHT22;8356;51.214;3.270;2023-03-23T08:02:51;384.10;2329.60
16491;DHT22;8356;51.214;3.270;2023-03-23T08:05:17;384.10;2329.60
16491;DHT22;8356;51.214;3.270;2023-03-23T08:07:44;384.20;2329.60
16491;DHT22;8356;51.214;3.270;2023-03-23T08:10:12;384.20;2329.60
16491;DHT22;8356;51.214;3.270;2023-03-23T08:12:40;384.40;2329.60
16491;DHT22;8356;51.214;3.270;2023-03-23T08:15:08;384.60;2329.60
16491;DHT22;8356;51.214;3.270;2023-03-23T08:17:34;384.70;2329.60
16491;DHT22;8356;51.214;3.270;2023-03-23T08:20:00;384.80;2329.60
16491;DHT22;8356;51.214;3.270;2023-03-23T08:22:27;409.60;2355.20
16491;DHT22;8356;51.214;3.270;2023-03-23T08:24:54;409.60;2355.20
16491;DHT22;8356;51.214;3.270;2023-03-23T08:27:20;384.90;2329.60
16491;DHT22;8356;51.214;3.270;2023-03-23T08:29:46;409.60;2355.20
16491;DHT22;8356;51.214;3.270;2023-03-23T08:32:12;409.70;2355.20
16491;DHT22;8356;51.214;3.270;2023-03-23T08:34:38;384.80;2329.60
16491;DHT22;8356;51.214;3.270;2023-03-23T08:37:04;384.40;2329.60
16491;DHT22;8356;51.214;3.270;2023-03-23T08:39:30;384.30;2329.60
16491;DHT22;8356;51.214;3.270;2023-03-23T08:41:56;384.30;2329.60
16491;DHT22;8356;51.214;3.270;2023-03-23T08:44:22;384.20;2329.60
16491;DHT22;8356;51.214;3.270;2023-03-23T08:46:48;384.20;2329.60
16491;DHT22;8356;51.214;3.270;2023-03-23T08:49:15;384.30;2329.60
16491;DHT22;8356;51.214;3.270;2023-03-23T08:51:41;384.40;2329.60
16491;DHT22;8356;51.214;3.270;2023-03-23T08:54:07;384.50;2329.60
16491;DHT22;8356;51.214;3.270;2023-03-23T08:56:33;384.60;2329.60
16491;DHT22;8356;51.214;3.270;2023-03-23T08:58:58;384.90;2329.60
16491;DHT22;8356;51.214;3.270;2023-03-23T09:01:24;409.60;2355.20
16491;DHT22;8356;51.214;3.270;2023-03-23T09:03:50;410.00;2355.20
16491;DHT22;8356;51.214;3.270;2023-03-23T09:06:16;410.00;2355.20
16491;DHT22;8356;51.214;3.270;2023-03-23T09:08:41;410.20;2355.20
16491;DHT22;8356;51.214;3.270;2023-03-23T09:11:09;410.30;2355.20
16491;DHT22;8356;51.214;3.270;2023-03-23T09:13:36;410.20;2355.20
16491;DHT22;8356;51.214;3.270;2023-03-23T09:16:02;410.50;2355.20
16491;DHT22;8356;51.214;3.270;2023-03-23T09:18:29;410.50;2355.20
16491;DHT22;8356;51.214;3.270;2023-03-23T09:20:58;435.20;2355.20
16491;DHT22;8356;51.214;3.270;2023-03-23T09:23:25;410.40;2355.20
16491;DHT22;8356;51.214;3.270;2023-03-23T09:25:51;410.20;2355.20
16491;DHT22;8356;51.214;3.270;2023-03-23T09:28:17;410.30;2355.20
16491;DHT22;8356;51.214;3.270;2023-03-23T09:30:43;410.40;2355.20
16491;DHT22;8356;51.214;3.270;2023-03-23T09:33:11;410.50;2355.20
16491;DHT22;8356;51.214;3.270;2023-03-23T09:35:37;410.20;2355.20
16491;DHT22;8356;51.214;3.270;2023-03-23T09:38:05;410.50;2355.20
16491;DHT22;8356;51.214;3.270;2023-03-23T09:40:48;410.40;2355.20
16491;DHT22;8356;51.214;3.270;2023-03-23T09:48:55;410.40;2355.20
16491;DHT22;8356;51.214;3.270;2023-03-23T09:56:54;435.20;2355.20
16491;DHT22;8356;51.214;3.270;2023-03-23T09:59:31;410.50;2355.20
16491;DHT22;8356;51.214;3.270;2023-03-23T10:02:27;410.30;2355.20
16491;DHT22;8356;51.214;3.270;2023-03-23T10:04:56;410.20;2355.20
16491;DHT22;8356;51.214;3.270;2023-03-23T10:07:26;410.00;2355.20
16491;DHT22;8356;51.214;3.270;2023-03-23T10:09:55;409.90;2355.20
16491;DHT22;8356;51.214;3.270;2023-03-23T10:12:36;409.80;2355.20
16491;DHT22;8356;51.214;3.270;2023-03-23T10:15:32;409.80;2355.20
16491;DHT22;8356;51.214;3.270;2023-03-23T10:18:08;409.80;2355.20
16491;DHT22;8356;51.214;3.270;2023-03-23T10:26:18;435.40;2355.20
16491;DHT22;8356;51.214;3.270;2023-03-23T10:28:52;435.60;2355.20
16491;DHT22;8356;51.214;3.270;2023-03-23T10:31:24;435.80;2355.20
16491;DHT22;8356;51.214;3.270;2023-03-23T10:33:53;436.00;2355.20
16491;DHT22;8356;51.214;3.270;2023-03-23T10:39:17;460.80;2380.80
16491;DHT22;8356;51.214;3.270;2023-03-23T10:41:44;435.80;2355.20
16491;DHT22;8356;51.214;3.270;2023-03-23T10:44:17;435.90;2355.20
16491;DHT22;8356;51.214;3.270;2023-03-23T10:47:16;435.80;2355.20
16491;DHT22;8356;51.214;3.270;2023-03-23T10:49:44;435.50;2355.20
16491;DHT22;8356;51.214;3.270;2023-03-23T10:54:50;410.30;2355.20
16491;DHT22;8356;51.214;3.270;2023-03-23T10:57:25;410.00;2355.20
16491;DHT22;8356;51.214;3.270;2023-03-23T11:00:03;409.90;2355.20
16491;DHT22;8356;51.214;3.270;2023-03-23T11:02:41;410.00;2355.20
16491;DHT22;8356;51.214;3.270;2023-03-23T11:05:19;410.40;2355.20
16491;DHT22;8356;51.214;3.270;2023-03-23T11:07:54;435.20;2355.20
16491;DHT22;8356;51.214;3.270;2023-03-23T11:12:49;435.80;2355.20
16491;DHT22;8356;51.214;3.270;2023-03-23T11:15:28;435.90;2355.20
16491;DHT22;8356;51.214;3.270;2023-03-23T11:18:04;435.80;2355.20
16491;DHT22;8356;51.214;3.270;2023-03-23T11:20:41;435.60;2355.20
16491;DHT22;8356;51.214;3.270;2023-03-23T11:23:32;435.50;2355.20
16491;DHT22;8356;51.214;3.270;2023-03-23T11:26:36;435.30;2355.20
16491;DHT22;8356;51.214;3.270;2023-03-23T11:29:13;435.30;2355.20
16491;DHT22;8356;51.214;3.270;2023-03-23T11:31:44;435.30;2355.20
16491;DHT22;8356;51.214;3.270;2023-03-23T11:34:16;435.30;2355.20
16491;DHT22;8356;51.214;3.270;2023-03-23T11:36:49;410.50;2355.20
16491;DHT22;8356;51.214;3.270;2023-03-23T11:39:22;410.30;2355.20
16491;DHT22;8356;51.214;3.270;2023-03-23T11:41:48;410.20;2355.20
16491;DHT22;8356;51.214;3.270;2023-03-23T11:44:14;410.20;2355.20
16491;DHT22;8356;51.214;3.270;2023-03-23T11:55:13;409.70;2355.20
16491;DHT22;8356;51.214;3.270;2023-03-23T11:57:40;409.80;2355.20
16491;DHT22;8356;51.214;3.270;2023-03-23T12:00:19;410.20;2355.20
16491;DHT22;8356;51.214;3.270;2023-03-23T12:06:04;435.40;2355.20
16491;DHT22;8356;51.214;3.270;2023-03-23T12:14:14;436.10;2355.20
16491;DHT22;8356;51.214;3.270;2023-03-23T12:16:54;460.80;2380.80
16491;DHT22;8356;51.214;3.270;2023-03-23T12:19:37;461.00;2380.80
16491;DHT22;8356;51.214;3.270;2023-03-23T12:31:15;435.90;2355.20
16491;DHT22;8356;51.214;3.270;2023-03-23T12:34:01;436.10;2355.20
16491;DHT22;8356;51.214;3.270;2023-03-23T12:39:05;461.00;2380.80
16491;DHT22;8356;51.214;3.270;2023-03-23T12:42:09;461.20;2380.80
16491;DHT22;8356;51.214;3.270;2023-03-23T12:45:06;461.30;2380.80
16491;DHT22;8356;51.214;3.270;2023-03-23T12:50:31;461.50;2380.80
16491;DHT22;8356;51.214;3.270;2023-03-23T12:58:17;461.20;2380.80
16491;DHT22;8356;51.214;3.270;2023-03-23T13:01:18;461.30;2380.80
16491;DHT22;8356;51.214;3.270;2023-03-23T13:04:02;461.50;2380.80
16491;DHT22;8356;51.214;3.270;2023-03-23T13:06:40;461.70;2380.80
16491;DHT22;8356;51.214;3.270;2023-03-23T13:09:19;461.70;2380.80
16491;DHT22;8356;51.214;3.270;2023-03-23T13:11:48;461.60;2380.80
16491;DHT22;8356;51.214;3.270;2023-03-23T13:28:04;486.70;2380.80
16491;DHT22;8356;51.214;3.270;2023-03-23T13:30:30;486.70;2380.80
16491;DHT22;8356;51.214;3.270;2023-03-23T13:33:06;486.70;2380.80
16491;DHT22;8356;51.214;3.270;2023-03-23T13:35:40;486.70;2380.80
16491;DHT22;8356;51.214;3.270;2023-03-23T13:38:32;486.50;2380.80
16491;DHT22;8356;51.214;3.270;2023-03-23T13:41:06;461.60;2380.80
16491;DHT22;8356;51.214;3.270;2023-03-23T13:43:34;461.40;2380.80
16491;DHT22;8356;51.214;3.270;2023-03-23T13:48:50;461.40;2380.80
16491;DHT22;8356;51.214;3.270;2023-03-23T13:51:33;461.40;2380.80
16491;DHT22;8356;51.214;3.270;2023-03-23T13:54:39;461.30;2380.80
16491;DHT22;8356;51.214;3.270;2023-03-23T13:57:36;461.30;2380.80
16491;DHT22;8356;51.214;3.270;2023-03-23T14:03:31;461.40;2380.80
16491;DHT22;8356;51.214;3.270;2023-03-23T14:10:57;461.60;2380.80
16491;DHT22;8356;51.214;3.270;2023-03-23T14:13:41;461.70;2380.80
16491;DHT22;8356;51.214;3.270;2023-03-23T14:16:20;486.40;2380.80
16491;DHT22;8356;51.214;3.270;2023-03-23T14:18:58;486.60;2380.80
16491;DHT22;8356;51.214;3.270;2023-03-23T14:24:24;486.70;2380.80
16491;DHT22;8356;51.214;3.270;2023-03-23T14:27:01;486.60;2380.80
16491;DHT22;8356;51.214;3.270;2023-03-23T14:29:27;486.60;2380.80
16491;DHT22;8356;51.214;3.270;2023-03-23T14:31:56;486.60;2380.80
16491;DHT22;8356;51.214;3.270;2023-03-23T14:34:25;486.70;2380.80
16491;DHT22;8356;51.214;3.270;2023-03-23T14:36:53;486.80;2380.80
16491;DHT22;8356;51.214;3.270;2023-03-23T14:39:33;486.90;2380.80
16491;DHT22;8356;51.214;3.270;2023-03-23T14:42:10;487.00;2380.80
16491;DHT22;8356;51.214;3.270;2023-03-23T14:44:40;486.90;2380.80
16491;DHT22;8356;51.214;3.270;2023-03-23T14:47:13;487.00;2380.80
16491;DHT22;8356;51.214;3.270;2023-03-23T14:49:42;487.10;2380.80
16491;DHT22;8356;51.214;3.270;2023-03-23T14:52:17;486.90;2380.80
16491;DHT22;8356;51.214;3.270;2023-03-23T14:54:46;486.80;2380.80
16491;DHT22;8356;51.214;3.270;2023-03-23T14:57:28;487.00;2380.80
16491;DHT22;8356;51.214;3.270;2023-03-23T14:59:54;487.10;2380.80
16491;DHT22;8356;51.214;3.270;2023-03-23T15:02:36;486.70;2380.80
16491;DHT22;8356;51.214;3.270;2023-03-23T15:05:14;486.80;2380.80
16491;DHT22;8356;51.214;3.270;2023-03-23T15:07:44;486.80;2380.80
16491;DHT22;8356;51.214;3.270;2023-03-23T15:10:16;486.80;2380.80
16491;DHT22;8356;51.214;3.270;2023-03-23T15:12:44;486.70;2380.80
16491;DHT22;8356;51.214;3.270;2023-03-23T15:15:28;486.60;2380.80
16491;DHT22;8356;51.214;3.270;2023-03-23T15:17:55;486.60;2380.80
16491;DHT22;8356;51.214;3.270;2023-03-23T15:20:26;486.50;2380.80
16491;DHT22;8356;51.214;3.270;2023-03-23T15:22:53;486.40;2380.80
16491;DHT22;8356;51.214;3.270;2023-03-23T15:33:11;486.60;2380.80
16491;DHT22;8356;51.214;3.270;2023-03-23T15:35:40;486.60;2380.80
16491;DHT22;8356;51.214;3.270;2023-03-23T15:38:17;486.50;2380.80
16491;DHT22;8356;51.214;3.270;2023-03-23T15:40:43;486.60;2380.80
16491;DHT22;8356;51.214;3.270;2023-03-23T15:43:17;486.60;2380.80
16491;DHT22;8356;51.214;3.270;2023-03-23T15:48:46;486.50;2380.80
16491;DHT22;8356;51.214;3.270;2023-03-23T15:51:13;486.40;2380.80
16491;DHT22;8356;51.214;3.270;2023-03-23T15:53:40;486.50;2380.80
16491;DHT22;8356;51.214;3.270;2023-03-23T15:56:08;486.40;2380.80
16491;DHT22;8356;51.214;3.270;2023-03-23T15:58:35;486.50;2380.80
16491;DHT22;8356;51.214;3.270;2023-03-23T16:01:04;486.60;2380.80
16491;DHT22;8356;51.214;3.270;2023-03-23T16:03:45;486.60;2380.80
16491;DHT22;8356;51.214;3.270;2023-03-23T16:06:13;486.40;2380.80
16491;DHT22;8356;51.214;3.270;2023-03-23T16:08:40;486.40;2380.80
16491;DHT22;8356;51.214;3.270;2023-03-23T16:11:10;461.70;2380.80
16491;DHT22;8356;51.214;3.270;2023-03-23T16:13:36;486.40;2380.80
16491;DHT22;8356;51.214;3.270;2023-03-23T16:16:02;461.70;2380.80
16491;DHT22;8356;51.214;3.270;2023-03-23T16:18:29;461.20;2380.80
16491;DHT22;8356;51.214;3.270;2023-03-23T16:20:56;461.40;2380.80
16491;DHT22;8356;51.214;3.270;2023-03-23T16:23:22;461.20;2380.80
16491;DHT22;8356;51.214;3.270;2023-03-23T16:25:48;461.00;2380.80
16491;DHT22;8356;51.214;3.270;2023-03-23T16:28:14;460.80;2380.80
16491;DHT22;8356;51.214;3.270;2023-03-23T16:30:42;435.80;2355.20
16491;DHT22;8356;51.214;3.270;2023-03-23T16:33:08;436.10;2355.20
16491;DHT22;8356;51.214;3.270;2023-03-23T16:35:34;436.10;2355.20
16491;DHT22;8356;51.214;3.270;2023-03-23T16:38:00;435.90;2355.20
16491;DHT22;8356;51.214;3.270;2023-03-23T16:40:26;435.90;2355.20
16491;DHT22;8356;51.214;3.270;2023-03-23T16:42:52;435.80;2355.20
16491;DHT22;8356;51.214;3.270;2023-03-23T16:45:18;435.70;2355.20
16491;DHT22;8356;51.214;3.270;2023-03-23T16:47:44;435.60;2355.20
16491;DHT22;8356;51.214;3.270;2023-03-23T16:50:14;435.70;2355.20
16491;DHT22;8356;51.214;3.270;2023-03-23T16:52:41;435.80;2355.20
16491;DHT22;8356;51.214;3.270;2023-03-23T16:55:09;435.80;2355.20
16491;DHT22;8356;51.214;3.270;2023-03-23T16:57:36;435.90;2355.20
16491;DHT22;8356;51.214;3.270;2023-03-23T17:00:11;435.90;2355.20
16491;DHT22;8356;51.214;3.270;2023-03-23T17:02:42;435.90;2355.20
16491;DHT22;8356;51.214;3.270;2023-03-23T17:05:09;435.80;2355.20
16491;DHT22;8356;51.214;3.270;2023-03-23T17:07:36;435.80;2355.20
16491;DHT22;8356;51.214;3.270;2023-03-23T17:10:03;435.80;2355.20
16491;DHT22;8356;51.214;3.270;2023-03-23T17:12:30;435.70;2355.20
16491;DHT22;8356;51.214;3.270;2023-03-23T17:14:56;435.70;2355.20
16491;DHT22;8356;51.214;3.270;2023-03-23T17:17:22;435.70;2355.20
16491;DHT22;8356;51.214;3.270;2023-03-23T17:19:48;435.70;2355.20
16491;DHT22;8356;51.214;3.270;2023-03-23T17:22:14;435.70;2355.20
16491;DHT22;8356;51.214;3.270;2023-03-23T17:24:40;435.60;2355.20
16491;DHT22;8356;51.214;3.270;2023-03-23T17:27:06;435.70;2355.20